Kingsford, Michigan
Current Conditions -  °F | °C
As of 12:54 PM on Friday 21 Nov 2014 (Local Time) from KIMT Reporting Station
Broken Clouds Broken Clouds  
Wind Chill:   Ceiling: 12000
Heat Index: 20°   Visibility: 10mi
Dew Point:   Wind: 17mph
Humidity: 48%   Direction: 190°S
Pressure: 30.16"   Gusts: NA
Location:  45.79°N, 88.07°W
Report Text: KIMT 211854Z AUTO 19015KT 10SM BKN120 M07/M16 A3016 RMK AO2 SLP240 T10671161
Loading
Personal Weather Stations






























Interactive Weather Map New forecast layout! Learn more

10-Day Weather Forecast

Advertisements
Track Severe Weather on mobile